Portada
METAR-TAF:

METAR-TAF

Aeropuertos :

Aeropuerto de Kangiqsualujjuaq

Kangiqsualujjuaq, Quebec, Canadá

latitud: 58-43N, longitud: 065-59W, altitud: 60 m

Observación

El informe se hizo hace 21 minutos, a las 13:00 UTC
Viento 5 kt del sur
Temperatura -16°C
Humedad 84%
Presión 1024 hPa
Visibilidad: 8.0 km
Escasas nubes a una altura de 1800 ft
Cielo cubierto a una altura de 2600 ft
poca nieve

METAR: CYLU 101300Z 17005KT 5SM -SN FEW018 OVC026 M16/M18 A3023 RMK SC1SC7 SNW CVR/MUCH LOOSE SLP245

Hora: 08:21 (13:21 UTC)


TAF: falta

Observaciones y pronósticos meteorológicos de más de 4000 aeropuertos (mensajes METAR y TAF).

Los puntos amarillos y rojos representan las estaciones disponibles.

Ponga el ratón en el punto deseado para ver el nombre de la estación.

Haga clic para ver las observaciones y los pronósticos meteorológicos.

Para cambiar el mapa : haga clic en los botones verdes con una cruz de color negro para hacer un zoom, en el botón verde con un guión para alejar o en las flechas verdes para mapas adyacentes.


METAR-TAF: